Time;durP1;ratioP1;P1;durP2;ratioP2;P2;SDS_P1;SDS_P2;PMS_P1;PMS_P2;Temp;Humidity;BMP_temperature;BMP_pressure;BME280_temperature;BME280_humidity;BME280_pressure;Samples;Min_cycle;Max_cycle;Signal;HPM_P1;HPM_P2
2022/02/27 00:03:39;;;;;;;45.90;22.30;;;;;;;-0.48;80.41;100325.08;219621;1277;24000;-72
2022/02/27 00:08:49;;;;;;;42.30;23.10;;;;;;;-0.48;80.30;100326.76;219651;1277;22580;-71
2022/02/27 00:14:25;;;;;;;43.70;23.20;;;;;;;-0.49;80.42;100329.98;219706;1277;22537;-70
2022/02/27 00:19:31;;;;;;;47.70;22.80;;;;;;;-0.52;80.21;100329.42;219560;1277;25417;-71
2022/02/27 00:24:33;;;;;;;43.80;22.40;;;;;;;-0.50;80.68;100331.31;219617;1276;22687;-72
2022/02/27 00:29:39;;;;;;;49.30;25.70;;;;;;;-0.41;80.88;100330.69;219402;1277;22582;-71
2022/02/27 00:34:41;;;;;;;46.50;23.50;;;;;;;-0.32;80.79;100327.67;219764;1276;25404;-70
2022/02/27 00:39:43;;;;;;;48.00;22.90;;;;;;;-0.23;81.13;100330.95;219775;1277;23807;-71
2022/02/27 00:44:46;;;;;;;44.00;22.90;;;;;;;-0.16;81.17;100327.80;219685;1277;22591;-71
2022/02/27 00:49:55;;;;;;;46.10;23.50;;;;;;;-0.17;80.82;100333.09;219879;1277;22648;-71
2022/02/27 00:55:17;;;;;;;47.30;24.10;;;;;;;-0.24;80.73;100339.02;219740;1277;22737;-72
2022/02/27 01:00:19;;;;;;;46.30;23.70;;;;;;;-0.32;80.78;100337.35;219790;1276;22617;-71
2022/02/27 01:05:24;;;;;;;43.10;21.70;;;;;;;-0.40;80.73;100338.27;219779;1277;25576;-71
2022/02/27 01:10:29;;;;;;;51.20;24.50;;;;;;;-0.48;80.71;100341.14;219611;1277;22614;-70
2022/02/27 01:15:32;;;;;;;51.20;25.40;;;;;;;-0.56;80.87;100345.27;219616;1277;25400;-70
2022/02/27 01:20:35;;;;;;;44.40;23.10;;;;;;;-0.61;81.19;100351.01;218842;1278;23177;-70
2022/02/27 01:25:57;;;;;;;47.10;24.50;;;;;;;-0.65;81.29;100350.77;219646;1277;25660;-71
2022/02/27 01:30:59;;;;;;;50.60;23.60;;;;;;;-0.67;81.29;100343.70;218787;1278;24271;-71
2022/02/27 01:36:03;;;;;;;51.40;25.10;;;;;;;-0.71;81.61;100343.84;218630;1277;23009;-71
2022/02/27 01:41:08;;;;;;;53.00;24.50;;;;;;;-0.73;81.75;100347.95;219702;1277;25379;-70
2022/02/27 01:46:14;;;;;;;54.00;25.00;;;;;;;-0.74;81.66;100351.46;219719;1278;22546;-69
2022/02/27 01:51:23;;;;;;;48.80;24.30;;;;;;;-0.74;81.76;100352.45;219064;1277;22654;-71
2022/02/27 01:56:48;;;;;;;55.60;27.60;;;;;;;-0.74;81.96;100352.13;219739;1277;22625;-71
2022/02/27 02:02:04;;;;;;;56.00;25.60;;;;;;;-0.67;82.01;100354.14;219774;1277;24314;-70
2022/02/27 02:07:39;;;;;;;50.90;26.00;;;;;;;-0.56;82.22;100351.48;219843;1276;22594;-71
2022/02/27 02:12:43;;;;;;;54.20;26.00;;;;;;;-0.47;82.26;100344.15;219655;1277;25493;-71
2022/02/27 02:17:56;;;;;;;46.30;24.10;;;;;;;-0.43;81.75;100339.48;219676;1277;24319;-71
2022/02/27 02:23:13;;;;;;;48.10;24.30;;;;;;;-0.47;81.85;100345.25;219672;1277;23364;-72
2022/02/27 02:28:15;;;;;;;47.20;24.20;;;;;;;-0.55;81.84;100344.48;218822;1277;22590;-71
2022/02/27 02:33:18;;;;;;;50.40;24.50;;;;;;;-0.63;81.72;100345.08;219556;1277;22775;-72
2022/02/27 02:38:26;;;;;;;53.80;25.70;;;;;;;-0.71;81.86;100339.54;219656;1276;22637;-71
2022/02/27 02:44:03;;;;;;;50.90;25.90;;;;;;;-0.81;81.87;100342.64;219511;1277;24312;-70
2022/02/27 02:49:11;;;;;;;53.50;25.10;;;;;;;-0.90;81.62;100346.83;219650;1277;24285;-71
2022/02/27 02:54:21;;;;;;;51.00;25.90;;;;;;;-0.94;81.84;100342.30;219597;1276;24325;-71
2022/02/27 02:59:26;;;;;;;51.60;26.10;;;;;;;-1.03;81.86;100344.19;218872;1277;22943;-71
2022/02/27 03:04:29;;;;;;;56.30;26.00;;;;;;;-1.09;81.90;100338.41;219784;1276;25390;-71
2022/02/27 03:09:35;;;;;;;60.80;28.20;;;;;;;-1.16;82.07;100336.47;219861;1277;23373;-71
2022/02/27 03:14:49;;;;;;;61.20;28.50;;;;;;;-1.20;82.17;100336.10;219654;1277;22598;-71
2022/02/27 03:19:54;;;;;;;59.00;27.80;;;;;;;-1.25;82.30;100338.53;218673;1276;25711;-71
2022/02/27 03:24:59;;;;;;;60.70;30.20;;;;;;;-1.30;82.21;100339.96;219713;1277;25859;-71
2022/02/27 03:30:04;;;;;;;67.40;32.50;;;;;;;-1.31;82.58;100344.49;218601;1276;22741;-71
2022/02/27 03:35:12;;;;;;;59.80;28.60;;;;;;;-1.31;82.56;100338.68;219815;1276;24422;-70
2022/02/27 03:40:19;;;;;;;60.90;29.70;;;;;;;-1.31;82.67;100342.63;219714;1277;22567;-71
2022/02/27 03:45:26;;;;;;;56.80;28.60;;;;;;;-1.34;82.77;100347.30;219718;1276;25394;-71
2022/02/27 03:50:29;;;;;;;55.40;27.50;;;;;;;-1.35;82.91;100354.13;219662;1276;22726;-71
2022/02/27 03:55:48;;;;;;;;;;;;;;;;;;;;;
2022/02/27 04:01:00;;;;;;;51.10;27.30;;;;;;;-1.39;82.79;100345.77;219602;1277;25763;-72
2022/02/27 04:06:02;;;;;;;57.70;30.30;;;;;;;-1.43;82.79;100344.91;219719;1277;23443;-71
2022/02/27 04:11:05;;;;;;;56.90;30.80;;;;;;;-1.46;82.99;100346.32;219702;1277;22839;-72
2022/02/27 04:16:13;;;;;;;55.10;29.00;;;;;;;-1.52;82.76;100348.00;219611;1277;22641;-71
2022/02/27 04:21:24;;;;;;;50.30;27.80;;;;;;;-1.59;82.89;100350.36;219796;1277;22714;-71
2022/02/27 04:26:46;;;;;;;59.10;30.10;;;;;;;-1.67;82.86;100345.14;219681;1277;24342;-71
2022/02/27 04:32:17;;;;;;;50.90;25.00;;;;;;;-1.72;82.86;100347.77;219575;1277;22595;-71
2022/02/27 04:37:26;;;;;;;60.00;29.50;;;;;;;-1.78;82.80;100346.55;219783;1277;25321;-71
2022/02/27 04:42:36;;;;;;;51.50;25.60;;;;;;;-1.83;82.94;100350.96;219679;1276;23002;-71
2022/02/27 04:48:04;;;;;;;55.80;26.50;;;;;;;-1.88;83.08;100363.23;219700;1277;22595;-70
2022/02/27 04:53:17;;;;;;;66.40;33.00;;;;;;;-1.89;83.10;100369.60;219588;1276;25570;-70
2022/02/27 04:58:51;;;;;;;65.90;32.90;;;;;;;-1.91;83.33;100373.12;219727;1276;24885;-72
2022/02/27 05:03:54;;;;;;;66.80;32.80;;;;;;;-1.91;83.29;100374.89;219719;1276;22755;-70
2022/02/27 05:09:07;;;;;;;63.10;29.50;;;;;;;-1.90;83.43;100379.13;219737;1277;23916;-71
2022/02/27 05:14:31;;;;;;;63.30;32.40;;;;;;;-1.88;83.44;100384.77;219630;1276;22611;-71
2022/02/27 05:19:55;;;;;;;64.80;32.20;;;;;;;-1.86;83.53;100391.56;219686;1276;22594;-71
2022/02/27 05:24:57;;;;;;;65.00;33.90;;;;;;;-1.84;83.46;100401.31;219769;1276;24341;-71
2022/02/27 05:30:00;;;;;;;64.60;33.90;;;;;;;-1.83;83.49;100406.11;219693;1277;22624;-70
2022/02/27 05:35:06;;;;;;;64.70;34.30;;;;;;;-1.83;83.67;100412.98;219736;1276;22602;-70
2022/02/27 05:40:08;;;;;;;70.30;36.20;;;;;;;-1.82;83.78;100414.73;219641;1276;22724;-70
2022/02/27 05:45:14;;;;;;;70.10;36.70;;;;;;;-1.80;83.80;100420.32;219773;1276;24391;-71
2022/02/27 05:50:17;;;;;;;61.30;32.90;;;;;;;-1.78;83.62;100426.52;219963;1276;22635;-71
2022/02/27 05:55:22;;;;;;;60.70;30.40;;;;;;;-1.76;83.91;100432.86;219670;1276;22652;-72
2022/02/27 06:00:37;;;;;;;55.60;29.30;;;;;;;-1.70;84.05;100432.02;219015;1276;22638;-71
2022/02/27 06:05:40;;;;;;;57.80;29.60;;;;;;;-1.62;83.93;100439.04;219773;1276;25403;-71
2022/02/27 06:10:42;;;;;;;56.10;30.10;;;;;;;-1.58;83.91;100441.66;219816;1276;22573;-71
2022/02/27 06:15:45;;;;;;;60.90;29.60;;;;;;;-1.51;84.00;100444.17;219816;1276;25568;-71
2022/02/27 06:20:56;;;;;;;58.40;29.20;;;;;;;-1.44;84.00;100450.40;218776;1276;26583;-70
2022/02/27 06:26:05;;;;;;;57.90;30.20;;;;;;;-1.36;84.08;100454.59;218852;1276;22587;-71
2022/02/27 06:31:10;;;;;;;60.70;30.90;;;;;;;-1.26;84.38;100456.75;219717;1276;25485;-72
2022/02/27 06:36:13;;;;;;;62.10;32.20;;;;;;;-1.13;84.06;100463.10;218959;1276;22586;-71
2022/02/27 06:41:22;;;;;;;62.80;29.40;;;;;;;-1.01;84.26;100469.30;219815;1277;22584;-72
2022/02/27 06:46:24;;;;;;;53.90;28.30;;;;;;;-0.88;84.27;100469.44;219687;1276;25540;-71
2022/02/27 06:51:30;;;;;;;58.10;28.30;;;;;;;-0.75;84.36;100470.59;219673;1276;22611;-71
2022/02/27 06:56:43;;;;;;;54.60;27.50;;;;;;;-0.62;84.02;100474.31;219668;1276;22550;-71
2022/02/27 07:01:48;;;;;;;53.80;28.30;;;;;;;-0.50;84.00;100472.83;219605;1276;22626;-71
2022/02/27 07:06:50;;;;;;;54.90;29.90;;;;;;;-0.36;84.12;100475.48;219807;1276;22683;-71
2022/02/27 07:11:55;;;;;;;57.40;29.30;;;;;;;-0.18;83.99;100481.56;220076;1276;22635;-71
2022/02/27 07:17:10;;;;;;;54.00;29.50;;;;;;;0.02;83.71;100485.64;219773;1276;22737;-71
2022/02/27 07:22:13;;;;;;;58.50;31.60;;;;;;;0.16;83.52;100484.17;218865;1276;214532;-72
2022/02/27 07:27:27;;;;;;;56.50;30.90;;;;;;;0.31;83.50;100488.46;218577;1276;22748;-71
2022/02/27 07:32:36;;;;;;;55.00;31.10;;;;;;;0.50;83.74;100491.25;218830;1276;22648;-69
2022/02/27 07:37:39;;;;;;;53.40;29.70;;;;;;;0.68;83.13;100486.82;219762;1276;22596;-71
2022/02/27 07:42:42;;;;;;;51.30;29.70;;;;;;;0.85;83.01;100487.33;219711;1276;22551;-70
2022/02/27 07:47:44;;;;;;;55.60;30.20;;;;;;;1.02;82.88;100481.10;219742;1276;22721;-70
2022/02/27 07:52:52;;;;;;;52.80;29.60;;;;;;;1.20;82.37;100476.61;219643;1276;24318;-70
2022/02/27 07:58:14;;;;;;;50.40;29.00;;;;;;;1.38;82.06;100482.15;219515;1276;22577;-70
2022/02/27 08:03:16;;;;;;;52.50;29.50;;;;;;;1.55;81.73;100487.33;219515;1276;22541;-71
2022/02/27 08:08:19;;;;;;;50.20;29.60;;;;;;;1.75;81.30;100494.65;219843;1276;24260;-71
2022/02/27 08:13:21;;;;;;;52.60;30.90;;;;;;;1.90;81.15;100491.79;219679;1276;27506;-71
2022/02/27 08:18:43;;;;;;;56.70;31.90;;;;;;;2.06;80.72;100489.13;219622;1276;22560;-70
2022/02/27 08:24:11;;;;;;;49.60;28.50;;;;;;;2.27;80.46;100488.56;218795;1276;24072;-70
2022/02/27 08:29:14;;;;;;;53.00;30.30;;;;;;;2.47;80.26;100493.85;219569;1276;24290;-70
2022/02/27 08:34:30;;;;;;;;;;;;;;;;;;;;;
2022/02/27 08:39:38;;;;;;;48.70;29.20;;;;;;;2.81;79.34;100494.79;218480;1276;22900;-71
2022/02/27 08:44:43;;;;;;;56.70;31.40;;;;;;;2.98;79.21;100492.29;219551;1276;24284;-71
2022/02/27 08:49:54;;;;;;;48.40;30.00;;;;;;;3.16;78.90;100487.30;219498;1276;24309;-71
2022/02/27 08:55:40;;;;;;;44.60;25.90;;;;;;;3.41;78.72;100486.73;219702;1276;22745;-70
2022/02/27 09:01:28;;;;;;;50.90;28.70;;;;;;;3.68;78.02;100485.77;219577;1276;24722;-71
2022/02/27 09:06:33;;;;;;;43.60;26.50;;;;;;;3.94;77.89;100484.47;219930;1276;25258;-71
2022/02/27 09:11:38;;;;;;;43.90;26.20;;;;;;;4.17;77.45;100482.20;219767;1276;25266;-71
2022/02/27 09:16:41;;;;;;;41.40;26.00;;;;;;;4.36;77.11;100476.15;219784;1276;22575;-71
2022/02/27 09:21:46;;;;;;;45.20;26.80;;;;;;;4.52;76.65;100477.12;219819;1276;23061;-70
2022/02/27 09:26:58;;;;;;;30.90;19.60;;;;;;;4.68;75.75;100473.98;219620;1276;25278;-71
2022/02/27 09:32:01;;;;;;;29.20;18.40;;;;;;;4.81;74.99;100468.69;218736;1276;25273;-71
2022/02/27 09:37:13;;;;;;;25.10;16.30;;;;;;;4.93;74.36;100466.70;219758;1276;22691;-71
2022/02/27 09:42:15;;;;;;;27.30;16.60;;;;;;;5.02;73.65;100469.57;219853;1276;22572;-71
2022/02/27 09:47:20;;;;;;;24.60;13.20;;;;;;;5.24;73.81;100469.59;219737;1276;22628;-71
2022/02/27 09:52:28;;;;;;;23.70;12.20;;;;;;;5.53;73.09;100466.06;219583;1276;22650;-71
2022/02/27 09:57:46;;;;;;;17.10;11.30;;;;;;;5.80;72.40;100463.42;219761;1276;22636;-71
2022/02/27 10:03:31;;;;;;;13.00;8.10;;;;;;;6.02;70.93;100459.52;219559;1276;22566;-71
2022/02/27 10:08:42;;;;;;;11.50;6.50;;;;;;;6.17;69.11;100458.23;219835;1276;25796;-71
2022/02/27 10:13:47;;;;;;;13.60;8.60;;;;;;;6.35;67.63;100454.15;219710;1276;22572;-71
2022/02/27 10:18:57;;;;;;;11.50;6.60;;;;;;;6.54;67.55;100453.68;219907;1276;25341;-72
2022/02/27 10:24:08;;;;;;;9.50;6.00;;;;;;;6.80;66.19;100449.72;219839;1276;22605;-72
2022/02/27 10:29:14;;;;;;;8.40;5.30;;;;;;;7.15;65.19;100444.80;219669;1276;22712;-71
2022/02/27 10:34:31;;;;;;;7.60;4.70;;;;;;;7.38;62.93;100441.75;219859;1276;25375;-70
2022/02/27 10:39:42;;;;;;;5.90;3.20;;;;;;;7.43;61.49;100434.66;219858;1276;25393;-71
2022/02/27 10:45:03;;;;;;;3.90;2.80;;;;;;;7.28;60.48;100435.41;219774;1274;22638;-70
2022/02/27 10:50:19;;;;;;;4.80;3.30;;;;;;;7.06;59.08;100427.23;219944;1274;22617;-70
2022/02/27 10:55:21;;;;;;;7.00;4.00;;;;;;;6.86;59.42;100419.70;219809;1276;22676;-70
2022/02/27 11:00:43;;;;;;;7.00;4.00;;;;;;;6.73;59.36;100414.27;219856;1276;24247;-71
2022/02/27 11:05:48;;;;;;;10.50;5.40;;;;;;;6.75;59.73;100407.83;219697;1276;24345;-71
2022/02/27 11:10:51;;;;;;;6.40;3.90;;;;;;;6.92;59.51;100400.68;219615;1276;22573;-71
2022/02/27 11:16:18;;;;;;;6.30;3.50;;;;;;;7.01;57.60;100402.17;219897;1276;26474;-70
2022/02/27 11:21:48;;;;;;;6.20;3.50;;;;;;;6.90;56.26;100403.67;219743;1276;24310;-70
2022/02/27 11:26:53;;;;;;;5.80;3.00;;;;;;;6.74;55.82;100395.65;219715;1276;22548;-71
2022/02/27 11:32:10;;;;;;;4.70;3.30;;;;;;;6.48;53.72;100394.32;219759;1276;22572;-71
2022/02/27 11:37:51;;;;;;;8.40;3.90;;;;;;;6.35;54.20;100393.43;219837;1276;25328;-70
2022/02/27 11:43:10;;;;;;;7.20;2.80;;;;;;;6.29;54.08;100391.31;219787;1276;25840;-70
2022/02/27 11:49:32;;;;;;;;;;;;;;;;;;;;;
2022/02/27 11:55:07;;;;;;;5.10;3.00;;;;;;;6.31;54.22;100374.30;219819;1276;25458;-71
2022/02/27 12:00:15;;;;;;;6.20;2.70;;;;;;;6.42;53.69;100368.29;219921;1276;26238;-70
2022/02/27 12:05:51;;;;;;;7.30;4.00;;;;;;;6.50;53.45;100364.35;219898;1276;22573;-71
2022/02/27 12:12:08;;;;;;;5.60;3.40;;;;;;;6.67;53.12;100364.77;219655;1276;22699;-70
2022/02/27 12:18:10;;;;;;;4.70;2.90;;;;;;;6.78;52.68;100363.85;219709;1276;22574;-71
2022/02/27 12:23:53;;;;;;;4.50;3.00;;;;;;;6.84;52.22;100367.08;219400;1276;26410;-71
2022/02/27 12:29:58;;;;;;;6.00;3.10;;;;;;;6.93;52.67;100362.35;219715;1276;22544;-71
2022/02/27 12:36:02;;;;;;;4.10;2.50;;;;;;;7.00;52.10;100362.92;219843;1276;25361;-72
2022/02/27 12:41:07;;;;;;;4.40;2.60;;;;;;;6.95;51.73;100356.21;219979;1276;22614;-71
2022/02/27 12:46:31;;;;;;;5.30;3.10;;;;;;;6.94;52.30;100350.70;219801;1276;22572;-70
2022/02/27 12:51:38;;;;;;;6.40;3.30;;;;;;;6.93;51.72;100352.02;219802;1276;25332;-70
2022/02/27 12:56:55;;;;;;;5.60;3.20;;;;;;;6.79;50.43;100353.73;219867;1276;24151;-71
2022/02/27 13:02:10;;;;;;;4.20;2.80;;;;;;;6.68;49.99;100355.39;219852;1276;24300;-70
2022/02/27 13:07:16;;;;;;;4.70;3.00;;;;;;;6.58;50.01;100357.17;219890;1276;26534;-71
2022/02/27 13:12:30;;;;;;;4.50;2.90;;;;;;;6.45;49.52;100357.44;219788;1276;25393;-70
2022/02/27 13:17:45;;;;;;;4.60;2.80;;;;;;;6.26;48.68;100350.39;219441;1278;25446;-69
2022/02/27 13:22:51;;;;;;;4.90;3.30;;;;;;;6.15;49.33;100348.91;219668;1278;25192;-71
2022/02/27 13:28:00;;;;;;;5.40;3.10;;;;;;;6.12;49.14;100344.52;219738;1278;23246;-71
2022/02/27 13:33:28;;;;;;;6.60;3.80;;;;;;;6.12;49.59;100347.17;219634;1278;25377;-71
2022/02/27 13:38:36;;;;;;;5.70;3.30;;;;;;;6.16;49.37;100347.59;219714;1278;25397;-71
2022/02/27 13:43:45;;;;;;;7.40;4.10;;;;;;;6.10;49.29;100351.27;219658;1278;26548;-71
2022/02/27 13:49:15;;;;;;;10.70;5.00;;;;;;;6.01;49.08;100350.50;219765;1278;22654;-71
2022/02/27 13:54:24;;;;;;;7.30;3.70;;;;;;;5.83;49.87;100350.52;219704;1277;25648;-71
2022/02/27 13:59:39;;;;;;;6.20;4.10;;;;;;;5.66;49.84;100347.65;219860;1278;22616;-71
2022/02/27 14:05:16;;;;;;;5.70;3.50;;;;;;;5.48;49.67;100345.89;219546;1278;22540;-71
2022/02/27 14:10:31;;;;;;;7.60;4.00;;;;;;;5.35;50.19;100339.73;219789;1276;25273;-71
2022/02/27 14:16:03;;;;;;;7.50;3.50;;;;;;;5.31;49.65;100333.96;219764;1276;25526;-71
2022/02/27 14:21:29;;;;;;;12.00;4.80;;;;;;;5.23;50.22;100336.55;219822;1276;22567;-71
2022/02/27 14:26:38;;;;;;;12.20;4.70;;;;;;;5.18;50.70;100334.41;219770;1276;22706;-71
2022/02/27 14:31:54;;;;;;;9.10;5.70;;;;;;;5.12;51.61;100336.01;219742;1276;24262;-72
2022/02/27 14:36:56;;;;;;;15.80;8.20;;;;;;;5.01;52.76;100338.48;219762;1276;25274;-71
2022/02/27 14:42:37;;;;;;;;;;;;;;;4.85;53.82;100333.79;219720;1276;23954;-71
2022/02/27 14:47:40;;;;;;;16.30;8.80;;;;;;;4.70;54.95;100332.88;219924;1276;22582;-71
2022/02/27 14:53:04;;;;;;;19.00;9.40;;;;;;;4.61;55.67;100324.81;219768;1276;22560;-71
2022/02/27 14:58:11;;;;;;;16.00;10.10;;;;;;;4.52;56.33;100324.00;219723;1276;22574;-71
2022/02/27 15:03:19;;;;;;;20.50;12.00;;;;;;;4.42;57.03;100327.54;219766;1276;22572;-71
2022/02/27 15:08:34;;;;;;;19.40;11.60;;;;;;;4.32;57.75;100329.70;219650;1276;22591;-71
2022/02/27 15:13:52;;;;;;;24.00;12.60;;;;;;;4.21;58.03;100330.79;219926;1276;22547;-72
2022/02/27 15:19:04;;;;;;;21.70;12.40;;;;;;;4.11;58.40;100328.24;219390;1276;22493;-71
2022/02/27 15:24:53;;;;;;;;;;;;;;;;;;;;;
2022/02/27 15:30:29;;;;;;;20.20;9.40;;;;;;;3.93;59.05;100325.45;219714;1276;22750;-72
2022/02/27 15:35:58;;;;;;;19.00;11.10;;;;;;;3.87;59.31;100319.88;219799;1276;23052;-71
2022/02/27 15:41:23;;;;;;;21.60;12.50;;;;;;;3.85;59.85;100316.87;219853;1276;26397;-72
2022/02/27 15:46:46;;;;;;;23.40;12.30;;;;;;;3.82;60.22;100315.68;219613;1276;23426;-71
2022/02/27 15:52:31;;;;;;;20.60;10.90;;;;;;;3.75;60.69;100320.86;219742;1275;24263;-70
2022/02/27 15:58:06;;;;;;;20.30;10.60;;;;;;;3.60;60.86;100319.65;219833;1276;22538;-72
2022/02/27 16:03:15;;;;;;;22.30;11.80;;;;;;;3.45;61.41;100318.06;220049;1276;22576;-70
2022/02/27 16:08:33;;;;;;;23.00;12.10;;;;;;;3.31;62.16;100325.44;219614;1276;22578;-71
2022/02/27 16:13:38;;;;;;;23.60;12.00;;;;;;;3.17;62.93;100332.70;219988;1276;23737;-70
2022/02/27 16:18:46;;;;;;;23.90;12.30;;;;;;;3.01;64.04;100333.77;219812;1276;25387;-71
2022/02/27 16:23:55;;;;;;;23.90;11.90;;;;;;;2.84;64.38;100343.09;219860;1276;23578;-71
2022/02/27 16:28:58;;;;;;;27.10;12.90;;;;;;;2.70;65.16;100341.29;219736;1276;22557;-71
2022/02/27 16:34:06;;;;;;;28.40;13.10;;;;;;;2.54;65.65;100346.92;219853;1276;26441;-70
2022/02/27 16:39:15;;;;;;;23.20;12.00;;;;;;;2.40;66.05;100347.98;219885;1276;25348;-69
2022/02/27 16:44:17;;;;;;;27.10;12.80;;;;;;;2.28;66.22;100346.02;219775;1276;25377;-72
2022/02/27 16:49:37;;;;;;;;;;;;;;;;;;;;;
2022/02/27 16:54:45;;;;;;;24.80;11.90;;;;;;;1.89;66.58;100345.23;219714;1276;27170;-72
2022/02/27 17:00:09;;;;;;;24.20;12.40;;;;;;;1.69;66.86;100342.66;219749;1276;23806;-71
2022/02/27 17:05:16;;;;;;;29.60;13.90;;;;;;;1.51;67.95;100353.81;219804;1276;25377;-71
2022/02/27 17:10:20;;;;;;;29.30;13.90;;;;;;;1.37;68.28;100354.52;219661;1276;22719;-71
2022/02/27 17:15:26;;;;;;;27.10;13.60;;;;;;;1.21;69.05;100358.23;219755;1276;22716;-71
2022/02/27 17:20:28;;;;;;;33.40;15.30;;;;;;;1.07;69.66;100357.61;219626;1277;22678;-72
2022/02/27 17:25:32;;;;;;;32.00;15.20;;;;;;;0.95;70.20;100352.89;218811;1276;22639;-71
2022/02/27 17:30:36;;;;;;;29.20;13.90;;;;;;;0.83;70.48;100356.81;218763;1276;23081;-71
2022/02/27 17:35:54;;;;;;;30.00;13.50;;;;;;;0.72;70.97;100359.89;219758;1276;22718;-71
2022/02/27 17:40:56;;;;;;;24.40;12.30;;;;;;;0.62;71.46;100358.79;219815;1276;24401;-71
2022/02/27 17:45:59;;;;;;;24.40;12.10;;;;;;;0.52;71.66;100356.84;219913;1276;22496;-71
2022/02/27 17:51:05;;;;;;;24.40;12.30;;;;;;;0.42;71.78;100362.03;219581;1277;25691;-71
2022/02/27 17:56:11;;;;;;;27.10;13.40;;;;;;;0.31;71.84;100358.91;219719;1276;22547;-71
2022/02/27 18:01:16;;;;;;;33.90;14.30;;;;;;;0.20;71.98;100362.77;219728;1277;24266;-71
2022/02/27 18:06:28;;;;;;;24.70;12.50;;;;;;;0.09;72.19;100363.10;219799;1277;25387;-72
2022/02/27 18:11:31;;;;;;;26.10;12.30;;;;;;;-0.02;72.28;100362.78;219748;1276;24484;-70
2022/02/27 18:16:34;;;;;;;26.10;11.90;;;;;;;-0.12;72.34;100366.65;219748;1277;22564;-72
2022/02/27 18:21:45;;;;;;;25.20;12.40;;;;;;;-0.22;72.55;100374.77;219812;1276;22547;-72
2022/02/27 18:26:48;;;;;;;27.20;12.90;;;;;;;-0.29;73.00;100376.53;218608;1276;22624;-70
2022/02/27 18:31:50;;;;;;;25.30;12.90;;;;;;;-0.28;73.38;100378.09;219708;1276;24354;-70
2022/02/27 18:36:57;;;;;;;24.50;12.70;;;;;;;-0.24;73.23;100374.96;219730;1276;23851;-71
2022/02/27 18:42:12;;;;;;;22.70;12.20;;;;;;;-0.18;73.49;100378.38;219567;1277;22579;-71
2022/02/27 18:47:14;;;;;;;27.20;12.70;;;;;;;-0.18;73.29;100372.34;219572;1277;25509;-71
2022/02/27 18:52:18;;;;;;;22.40;12.40;;;;;;;-0.24;73.15;100367.52;219854;1276;22549;-70
2022/02/27 18:57:20;;;;;;;23.90;12.80;;;;;;;-0.38;73.07;100358.00;219832;1276;25479;-71
2022/02/27 19:02:22;;;;;;;25.40;13.50;;;;;;;-0.52;73.35;100355.81;219765;1277;22716;-71
2022/02/27 19:07:33;;;;;;;29.00;13.10;;;;;;;-0.66;73.29;100351.91;219867;1277;26360;-70
2022/02/27 19:12:36;;;;;;;23.30;12.50;;;;;;;-0.78;73.49;100345.94;220026;1276;22574;-71
2022/02/27 19:17:42;;;;;;;27.70;12.80;;;;;;;-0.89;73.79;100348.21;219821;1276;22550;-71
2022/02/27 19:22:55;;;;;;;27.70;13.40;;;;;;;-0.99;73.93;100342.16;219306;1277;530725;-71
2022/02/27 19:27:58;;;;;;;28.40;14.30;;;;;;;-1.10;74.03;100338.16;219770;1276;22566;-71
2022/02/27 19:33:00;;;;;;;25.30;13.20;;;;;;;-1.20;74.07;100336.10;219681;1277;22616;-70
2022/02/27 19:38:05;;;;;;;38.40;16.00;;;;;;;-1.29;74.48;100336.04;219705;1277;22765;-71
2022/02/27 19:43:48;;;;;;;33.70;16.30;;;;;;;-1.36;74.74;100334.14;218856;1277;22596;-71
2022/02/27 19:49:11;;;;;;;35.10;16.20;;;;;;;-1.44;74.88;100331.54;218952;1276;22646;-70
2022/02/27 19:54:14;;;;;;;28.90;15.00;;;;;;;-1.51;74.90;100336.61;218863;1277;23110;-71
2022/02/27 19:59:17;;;;;;;28.40;13.80;;;;;;;-1.57;75.41;100341.53;219827;1277;25271;-71
2022/02/27 20:04:19;;;;;;;26.80;13.50;;;;;;;-1.60;75.63;100339.42;218866;1277;25719;-72
2022/02/27 20:14:46;;;;;;;31.10;13.70;;;;;;;-1.64;75.95;100335.37;219547;1278;22724;-71
2022/02/27 20:20:04;;;;;;;;;;;;;;;;;;;;;
2022/02/27 20:25:10;;;;;;;33.30;15.30;;;;;;;-1.73;76.12;100329.14;219872;1277;25875;-72
2022/02/27 20:30:26;;;;;;;;;;;;;;;;;;;;;
2022/02/27 20:35:49;;;;;;;31.70;15.00;;;;;;;-1.82;76.44;100320.83;219676;1277;25790;-71
2022/02/27 20:41:03;;;;;;;33.50;14.60;;;;;;;-1.87;76.51;100324.88;219905;1277;25634;-71
2022/02/27 20:46:42;;;;;;;36.10;17.50;;;;;;;-1.95;76.64;100325.77;219663;1277;24380;-70
2022/02/27 20:51:45;;;;;;;35.80;16.20;;;;;;;-2.04;76.61;100327.77;219616;1277;22554;-70
2022/02/27 20:56:51;;;;;;;32.20;14.90;;;;;;;-2.11;76.94;100323.12;219590;1278;26095;-72
2022/02/27 21:01:54;;;;;;;33.30;15.50;;;;;;;-2.15;77.18;100315.39;219695;1277;24264;-71
2022/02/27 21:07:00;;;;;;;32.80;15.50;;;;;;;-2.19;77.21;100304.73;219332;1277;22561;-71
2022/02/27 21:12:04;;;;;;;31.70;14.90;;;;;;;-2.22;77.51;100307.74;219625;1278;25401;-71
2022/02/27 21:17:07;;;;;;;30.30;14.90;;;;;;;-2.25;77.52;100306.25;219721;1278;25744;-71
2022/02/27 21:22:16;;;;;;;31.00;14.90;;;;;;;-2.29;77.76;100304.18;219488;1278;24259;-71
2022/02/27 21:27:24;;;;;;;40.60;16.20;;;;;;;-2.31;77.88;100298.48;219707;1277;22791;-71
2022/02/27 21:32:29;;;;;;;27.80;14.50;;;;;;;-2.33;78.17;100295.77;219705;1277;22570;-70
2022/02/27 21:38:17;;;;;;;35.70;15.90;;;;;;;-2.35;78.19;100295.08;219885;1277;22570;-70
2022/02/27 21:43:22;;;;;;;25.50;13.80;;;;;;;-2.36;78.47;100297.17;219942;1277;23526;-72
2022/02/27 21:48:25;;;;;;;28.70;14.10;;;;;;;-2.36;78.48;100294.71;219781;1277;23065;-71
2022/02/27 21:53:31;;;;;;;29.30;15.00;;;;;;;-2.32;78.88;100294.61;219742;1277;25467;-71
2022/02/27 21:58:33;;;;;;;33.30;15.10;;;;;;;-2.27;78.99;100290.73;219908;1277;22697;-70
2022/02/27 22:03:36;;;;;;;34.60;15.90;;;;;;;-2.25;78.95;100289.77;219866;1277;25269;-71
2022/02/27 22:08:39;;;;;;;35.50;16.20;;;;;;;-2.25;79.04;100287.30;219698;1277;25421;-70
2022/02/27 22:13:43;;;;;;;36.20;16.10;;;;;;;-2.26;78.98;100286.80;219738;1277;24271;-70
2022/02/27 22:18:45;;;;;;;35.00;16.40;;;;;;;-2.29;79.19;100282.52;219830;1277;24234;-71
2022/02/27 22:23:51;;;;;;;42.10;17.60;;;;;;;-2.31;79.17;100283.95;219721;1276;22583;-71
2022/02/27 22:28:54;;;;;;;34.50;15.80;;;;;;;-2.33;79.34;100284.38;219773;1277;24011;-69
2022/02/27 22:34:04;;;;;;;34.60;15.60;;;;;;;-2.36;79.36;100284.02;219835;1276;24225;-71
2022/02/27 22:39:18;;;;;;;32.30;15.00;;;;;;;-2.38;79.68;100277.04;219722;1276;25686;-72
2022/02/27 22:44:20;;;;;;;32.80;15.00;;;;;;;-2.35;79.79;100276.09;219798;1276;22725;-71
2022/02/27 22:49:24;;;;;;;39.00;15.80;;;;;;;-2.34;79.96;100281.13;219562;1277;22674;-71
2022/02/27 22:54:28;;;;;;;34.80;15.70;;;;;;;-2.32;80.04;100277.81;219944;1276;24194;-72
2022/02/27 22:59:44;;;;;;;29.40;14.00;;;;;;;-2.34;80.04;100274.90;219641;1277;22576;-71
2022/02/27 23:10:20;;;;;;;37.00;16.40;;;;;;;-2.45;79.98;100270.95;219727;1276;22566;-71
2022/02/27 23:15:32;;;;;;;36.20;16.60;;;;;;;-2.49;80.19;100268.25;219960;1276;22559;-70
2022/02/27 23:20:41;;;;;;;31.90;14.80;;;;;;;-2.51;80.22;100273.18;219537;1277;22553;-70
2022/02/27 23:25:44;;;;;;;27.50;15.30;;;;;;;-2.49;80.38;100269.64;219647;1276;24201;-72
2022/02/27 23:30:48;;;;;;;31.20;15.30;;;;;;;-2.45;80.57;100269.60;219725;1276;22553;-72
2022/02/27 23:35:54;;;;;;;31.80;15.00;;;;;;;-2.42;80.41;100275.70;219762;1276;22708;-71
2022/02/27 23:41:01;;;;;;;31.80;14.40;;;;;;;-2.38;80.56;100270.77;219606;1276;22582;-71
2022/02/27 23:46:04;;;;;;;35.80;15.80;;;;;;;-2.37;80.52;100268.33;218869;1276;22706;-70
2022/02/27 23:51:09;;;;;;;35.60;15.90;;;;;;;-2.35;80.50;100267.81;219123;1275;22644;-71
2022/02/27 23:56:16;;;;;;;29.30;15.10;;;;;;;-2.37;80.21;100256.10;219799;1276;22666;-72
